< < Back
Terminal Aerodrome Forecast


Current Version              Previous Versions:   1  2  3  4  5  6  7  8  9  

Terminal Aerodrome Forecast

334
FTUS44 KOHX 251700
TAFBNA
TAF
KBNA 251736Z 2518/2618 31006KT P6SM FEW060 SCT120
     FM252300 34003KT P6SM SCT200=



Latest METAR

143
SAUS70 KWBC 261500 RRC
MTRBNA
METAR KBNA 261453Z 00000KT 8SM FEW160 BKN200 BKN250 03/M01 A3015 RMK AO2
SLP213 T00281011 51005


USA.gov is the U.S. government's official web portal to all federal, state and local government web resources and services.